Superior Township, Michigan
Current Conditions -  °F | °C
As of 9:53 PM on Thursday 27 Nov 2014 (Local Time) from KARB Reporting Station
Broken Clouds Broken Clouds  
Wind Chill: 13°   Ceiling: 6000
Heat Index: 24°   Visibility: 10mi
Dew Point: 13°   Wind: 12mph
Humidity: 62%   Direction: 320°NW
Pressure: 30.29"   Gusts: NA
Location:  42.3281°N, 83.7037°W
Report Text: KARB 280253Z AUTO 32010KT 10SM FEW028 BKN060 M04/M11 A3029 RMK AO2 SNE11 SLP269 P0000 60000 T10441106 51017
Loading
Personal Weather Stations






























Interactive Weather Map New forecast layout! Learn more

10-Day Weather Forecast

Advertisements
Track Severe Weather on mobile